Decoded Metar for EPLL (LODZ in POLAND) (IATA:N/A) | Meteo·Mobile Aviation Weather
aviador You're here:

EPLL Decoded Metar

LODZ in POLAND
Report Time2019-02-16 17:00:00
UTC Time2019-02-16 17:31:50
Flight Rules vfr VFR
WindVRB at 02 kt
Visibility9000 m
Phenomena:N/A
Clouds:N/A
Expected CloudBase > 3,600 ft AGL from Temp-Dew spread
CeilingNone
Temp08°C (ISA -6)
Dew Point-1°C (53% RH)
AAT5.2°C
QNH1025 hPa
Density Alt-417 ft
Elevation604 ft
Report Wrong Elevation
Raw Report
EPLL 161700Z VRB02KT 9000 NSC 08/M01 Q1025=

Extra information for EPLL:More info

Metar Taf Metar & Taf Last 4 Metars F.Rules Stats Wind Profile Meteogram Temp Stats Airport Information Weather charts Add Link Nearby VenuesMetar ALERT Operation Metar Decoded Social comments